หน้าหลัก
METAR-TAF:

METAR-TAF

ท่าอากาศยาน :

บามาโก, มาลี

ละติจูด: 12-32N, ลองจิจูด: 007-57W, ความสูง: 380 ม.

การสังเกตสภาพอากาศปัจจุบัน

รายงานได้ทำขึ้นเมื่อ 19 นาทีที่แล้ว ณ เวลา 07:30 UTC
ลม 4 นอตจากตะวันออกเฉียงเหนือ
อุณหภูมิ 19°C
ความชื้น 21%
ความกดอากาศ 1014 hPa
ทัศนวิสัย: 8000 ม.

METAR: GABS 250730Z 04004KT 8000 NSC 19/M04 Q1014 NOSIG

เวลา: 07:49 (07:49 UTC)

การพยากรณ์

รายงานได้ทำขึ้นเมื่อ 2 ชั่วโมงและ 49 นาทีที่แล้ว ณ เวลา 05:00 UTC
การพยากรณ์มีผลตั้งแต่วันที่ 25 ณ เวลา 06 UTC จนถึงวันที่ 26 ณ เวลา 12 UTC
ลม 10 นอตจากตะวันออกเฉียงเหนือ
ทัศนวิสัย: 8000 ม.
กำลังกลายเป็น
ตั้งแต่วันที่ 25 ณ เวลา 15 UTC จนถึงวันที่ 25 ณ เวลา 17 UTC
ลม 4 นอตจากทิศทางซึ่งแปรผันได้

TAF: GABS 250500Z 2506/2612 05010KT 8000 NSC BECMG 2515/2517 VRB04KT

สังเกตการณ์สภาพอากาศและพยากรณ์อากาศของสนามบินมากกว่า 4000 แห่ง (รายงาน METAR และ TAF).

สถานีที่ดูได้จะแสดงไว้ด้วยจุดสีเหลืองและสีแดงบนแผนที่.

เลื่อนเมาส์ไปเหนือจุดเพื่อดูชื่อสถานี.

แล้วคลิกเพื่อดูสังเกตการณ์และการพยากรณ์สภาพอากาศ.

ในการเปลี่ยนแผนที่: คลิกที่ปุ่มสีเขียวที่มีกากบาทสีดำเพื่อซูมเข้า; ที่ปุ่มสีเขียวที่มีขีดเพื่อซูมออก; หรือที่ลูกศรสีเขียวเพื่อไปยังแผนที่ที่อยู่ติดกัน.


METAR-TAF: